Alpine Link — V7SZ7 — position and weather

sailwx.info

Track history (hours):
 
Tides and Currents Weather Stations Pressure Air Temp Water Temp Dewpoint Dewpoint Depression Visibility Wind Speed Wind Dir Waves Ship Positions

Alpine Link

Last reported at 2016-Jun-26 20:23 UTC. Time now 2016-Jul-01 00:58 UTC.
Position N 39°57' W 031°10'.

Length 183 m; draft 11.9 m.

Type: Tanker. MMSI: 538003758.

Date/timePositionNaut miles runAvg speedWind from/ knotsBaromVisibWave heightAir tempDewpointWater temp
2016-Jun-26 20:23N 39°57' W 031°10'3612.2
2016-Jun-26 17:27N 39°50' W 030°24'1112.2
2016-Jun-26 16:33N 39°47' W 030°10'1212.5
2016-Jun-26 15:33N 39°44' W 029°55'1212.5
2016-Jun-26 14:33N 39°41' W 029°39'1212.5
2016-Jun-26 13:34N 39°39' W 029°23'1312.8
2016-Jun-26 12:33N 39°36' W 029°07'1312.6
2016-Jun-26 11:33N 39°33' W 028°51'1312.9
2016-Jun-26 10:33N 39°30' W 028°35'1312.9
2016-Jun-26 09:33N 39°27' W 028°19'1312.9
2016-Jun-26 08:33N 39°24' W 028°02'1312.5
2016-Jun-26 07:34N 39°21' W 027°47'1212.4
2016-Jun-26 06:33N 39°18' W 027°31'1312.5
2016-Jun-26 05:29N 39°15' W 027°14'1212.5
2016-Jun-26 04:33N 39°12' W 026°60'1212.3
2016-Jun-26 03:33N 39°10' W 026°44'1312.6
2016-Jun-26 02:33N 39°07' W 026°28'1712.5
2016-Jun-26 01:13N 39°03' W 026°07'912.6
2016-Jun-26 00:33N 39°01' W 025°57'1312.8
2016-Jun-25 23:33N 38°58' W 025°41'1312.6
2016-Jun-25 22:33N 38°55' W 025°25'1312.6
2016-Jun-25 21:32N 38°52' W 025°09'1312.8
2016-Jun-25 20:33N 38°49' W 024°53'1212.5
2016-Jun-25 19:33N 38°46' W 024°38'1312.7
2016-Jun-25 18:33N 38°43' W 024°22'1312.6
2016-Jun-25 17:31N 38°40' W 024°05'1312.4
2016-Jun-25 16:27N 38°37' W 023°49'  
2016-Jun-23 02:04N 35°57' W 008°06'4612.4
2016-Jun-22 22:20N 35°58' W 007°09'1212.8
2016-Jun-22 21:26N 35°58' W 006°55'1312.6
2016-Jun-22 20:24N 35°58' W 006°38'5411.2
2016-Jun-22 15:33N 35°59' W 005°31'10 9.9
2016-Jun-22 14:33N 36°06' W 005°22'2 1.8
2016-Jun-22 13:33N 36°07' W 005°22'0 0.1
2016-Jun-22 10:18N 36°07' W 005°22'0 0.1
2016-Jun-22 09:27N 36°07' W 005°22'2 2.0
2016-Jun-22 08:33N 36°05' W 005°22'2 2.3
2016-Jun-22 07:33N 36°05' W 005°19'5 5.2
2016-Jun-22 06:33N 36°06' W 005°13'11811.3
2016-Jun-21 20:09N 36°14' W 002°47'3517.8
2016-Jun-21 18:10N 36°17' W 002°04'2 3.1
2016-Jun-21 17:30N 36°17' W 002°06'12012.1
2016-Jun-21 07:33N 36°41' E 000°20'1412.6
2016-Jun-21 06:28N 36°44' E 000°37'2311.9
2016-Jun-21 04:33N 36°49' E 001°05'2611.5
2016-Jun-21 02:18N 36°55' E 001°36'51411.2
2016-Jun-19 04:15N 36°58' E 012°19'4612.4
2016-Jun-19 00:32N 36°45' E 013°14'1111.4
2016-Jun-18 23:33N 36°43' E 013°28'1111.5
2016-Jun-18 22:33N 36°39' E 013°41'1211.6
2016-Jun-18 21:33N 36°36' E 013°55'1211.9
2016-Jun-18 20:33N 36°32' E 014°09'1211.9
2016-Jun-18 19:33N 36°29' E 014°24'1212.4
2016-Jun-18 18:33N 36°26' E 014°39'1212.3
2016-Jun-18 17:33N 36°24' E 014°54'1312.5
2016-Jun-18 16:33N 36°23' E 015°09'1212.3
2016-Jun-18 15:33N 36°22' E 015°24'20412.5
2016-Jun-17 23:15N 36°02' E 019°36'19012.0
2016-Jun-17 07:27N 35°58' E 023°31'1312.3
2016-Jun-17 06:25N 36°09' E 023°37'3612.5
2016-Jun-17 03:33N 36°41' E 023°58'1312.7
2016-Jun-17 02:32N 36°53' E 024°03'1812.7
2016-Jun-17 01:06N 37°11' E 024°10'712.6
2016-Jun-17 00:33N 37°17' E 024°13'2612.7
2016-Jun-16 22:32N 37°39' E 024°30'1512.7
2016-Jun-16 21:21N 37°54' E 024°33'  
Track history (hours):
 
Tides and Currents Weather Stations Pressure Air Temp Water Temp Dewpoint Dewpoint Depression Visibility Wind Speed Wind Dir Waves Ship Positions

Alpine Link

Last reported at 2016-Jun-26 20:23 UTC. Time now 2016-Jul-01 00:58 UTC.
Position N 39°57' W 031°10'.

Length 183 m; draft 11.9 m.

Type: Tanker. MMSI: 538003758.

Date/timePositionNaut miles runAvg speedWind from/ knotsBaromVisibWave heightAir tempDewpointWater temp
2016-Jun-26 20:23N 39°57' W 031°10'3612.2
2016-Jun-26 17:27N 39°50' W 030°24'1112.2
2016-Jun-26 16:33N 39°47' W 030°10'1212.5
2016-Jun-26 15:33N 39°44' W 029°55'1212.5
2016-Jun-26 14:33N 39°41' W 029°39'1212.5
2016-Jun-26 13:34N 39°39' W 029°23'1312.8
2016-Jun-26 12:33N 39°36' W 029°07'1312.6
2016-Jun-26 11:33N 39°33' W 028°51'1312.9
2016-Jun-26 10:33N 39°30' W 028°35'1312.9
2016-Jun-26 09:33N 39°27' W 028°19'1312.9
2016-Jun-26 08:33N 39°24' W 028°02'1312.5
2016-Jun-26 07:34N 39°21' W 027°47'1212.4
2016-Jun-26 06:33N 39°18' W 027°31'1312.5
2016-Jun-26 05:29N 39°15' W 027°14'1212.5
2016-Jun-26 04:33N 39°12' W 026°60'1212.3
2016-Jun-26 03:33N 39°10' W 026°44'1312.6
2016-Jun-26 02:33N 39°07' W 026°28'1712.5
2016-Jun-26 01:13N 39°03' W 026°07'912.6
2016-Jun-26 00:33N 39°01' W 025°57'1312.8
2016-Jun-25 23:33N 38°58' W 025°41'1312.6
2016-Jun-25 22:33N 38°55' W 025°25'1312.6
2016-Jun-25 21:32N 38°52' W 025°09'1312.8
2016-Jun-25 20:33N 38°49' W 024°53'1212.5
2016-Jun-25 19:33N 38°46' W 024°38'1312.7
2016-Jun-25 18:33N 38°43' W 024°22'1312.6
2016-Jun-25 17:31N 38°40' W 024°05'1312.4
2016-Jun-25 16:27N 38°37' W 023°49'  
2016-Jun-23 02:04N 35°57' W 008°06'4612.4
2016-Jun-22 22:20N 35°58' W 007°09'1212.8
2016-Jun-22 21:26N 35°58' W 006°55'1312.6
2016-Jun-22 20:24N 35°58' W 006°38'5411.2
2016-Jun-22 15:33N 35°59' W 005°31'10 9.9
2016-Jun-22 14:33N 36°06' W 005°22'2 1.8
2016-Jun-22 13:33N 36°07' W 005°22'0 0.1
2016-Jun-22 10:18N 36°07' W 005°22'0 0.1
2016-Jun-22 09:27N 36°07' W 005°22'2 2.0
2016-Jun-22 08:33N 36°05' W 005°22'2 2.3
2016-Jun-22 07:33N 36°05' W 005°19'5 5.2
2016-Jun-22 06:33N 36°06' W 005°13'11811.3
2016-Jun-21 20:09N 36°14' W 002°47'3517.8
2016-Jun-21 18:10N 36°17' W 002°04'2 3.1
2016-Jun-21 17:30N 36°17' W 002°06'12012.1
2016-Jun-21 07:33N 36°41' E 000°20'1412.6
2016-Jun-21 06:28N 36°44' E 000°37'2311.9
2016-Jun-21 04:33N 36°49' E 001°05'2611.5
2016-Jun-21 02:18N 36°55' E 001°36'51411.2
2016-Jun-19 04:15N 36°58' E 012°19'4612.4
2016-Jun-19 00:32N 36°45' E 013°14'1111.4
2016-Jun-18 23:33N 36°43' E 013°28'1111.5
2016-Jun-18 22:33N 36°39' E 013°41'1211.6
2016-Jun-18 21:33N 36°36' E 013°55'1211.9
2016-Jun-18 20:33N 36°32' E 014°09'1211.9
2016-Jun-18 19:33N 36°29' E 014°24'1212.4
2016-Jun-18 18:33N 36°26' E 014°39'1212.3
2016-Jun-18 17:33N 36°24' E 014°54'1312.5
2016-Jun-18 16:33N 36°23' E 015°09'1212.3
2016-Jun-18 15:33N 36°22' E 015°24'20412.5
2016-Jun-17 23:15N 36°02' E 019°36'19012.0
2016-Jun-17 07:27N 35°58' E 023°31'1312.3
2016-Jun-17 06:25N 36°09' E 023°37'3612.5
2016-Jun-17 03:33N 36°41' E 023°58'1312.7
2016-Jun-17 02:32N 36°53' E 024°03'1812.7
2016-Jun-17 01:06N 37°11' E 024°10'712.6
2016-Jun-17 00:33N 37°17' E 024°13'2612.7
2016-Jun-16 22:32N 37°39' E 024°30'1512.7
2016-Jun-16 21:21N 37°54' E 024°33'  

Dump ship's entire track history